Time;durP1;ratioP1;P1;durP2;ratioP2;P2;SDS_P1;SDS_P2;PMS_P1;PMS_P2;Temp;Humidity;BMP_temperature;BMP_pressure;BME280_temperature;BME280_humidity;BME280_pressure;Samples;Min_cycle;Max_cycle;Signal;HPM_P1;HPM_P2
2022/08/21 00:01:06;;;;;;;2.15;1.38;;;21.70;99.90;;;;;;7387852;19;20157;-80
2022/08/21 00:03:32;;;;;;;1.77;1.48;;;21.60;99.90;;;;;;7389706;19;20215;-80
2022/08/21 00:05:58;;;;;;;2.22;1.63;;;21.30;99.90;;;;;;7386088;19;20142;-81
2022/08/21 00:08:24;;;;;;;3.08;1.48;;;21.40;99.90;;;;;;7391780;19;20134;-78
2022/08/21 00:10:50;;;;;;;3.47;1.60;;;21.20;99.90;;;;;;7388304;19;20131;-80
2022/08/21 00:13:17;;;;;;;2.45;1.30;;;21.30;99.90;;;;;;7391261;19;20521;-81
2022/08/21 00:15:43;;;;;;;3.53;1.52;;;20.90;99.90;;;;;;7389288;19;20202;-80
2022/08/21 00:18:10;;;;;;;3.40;1.42;;;20.30;99.90;;;;;;7391170;19;20159;-81
2022/08/21 00:20:37;;;;;;;2.00;1.40;;;20.20;99.90;;;;;;7393433;19;20142;-82
2022/08/21 00:23:03;;;;;;;2.53;1.65;;;20.30;99.90;;;;;;7383227;19;20146;-80
2022/08/21 00:25:29;;;;;;;3.13;2.03;;;20.40;99.90;;;;;;7388192;19;20150;-80
2022/08/21 00:27:56;;;;;;;4.18;1.65;;;20.50;99.90;;;;;;7389533;19;20138;-79
2022/08/21 00:30:24;;;;;;;3.03;1.52;;;20.30;99.90;;;;;;7392554;19;20142;-80
2022/08/21 00:32:52;;;;;;;2.05;1.48;;;20.10;99.90;;;;;;7391274;19;20152;-80
2022/08/21 00:35:21;;;;;;;2.53;1.63;;;19.90;99.90;;;;;;7391476;19;20149;-80
2022/08/21 00:37:46;;;;;;;3.63;1.50;;;19.90;99.90;;;;;;7389345;19;20146;-82
2022/08/21 00:40:16;;;;;;;3.10;1.60;;;20.20;99.90;;;;;;7388012;19;20154;-80
2022/08/21 00:42:43;;;;;;;2.95;1.52;;;20.10;99.90;;;;;;7388454;19;20139;-80
2022/08/21 00:45:09;;;;;;;5.40;1.77;;;20.20;99.90;;;;;;7392356;19;20223;-80
2022/08/21 00:47:35;;;;;;;1.67;1.27;;;20.20;99.90;;;;;;7390898;19;20134;-80
2022/08/21 00:50:02;;;;;;;3.83;1.73;;;20.30;99.90;;;;;;7395154;19;20149;-78
2022/08/21 00:52:31;;;;;;;1.80;1.20;;;20.30;99.90;;;;;;7389134;19;20161;-80
2022/08/21 00:54:58;;;;;;;2.42;1.48;;;20.50;99.90;;;;;;7390169;19;20157;-80
2022/08/21 00:57:39;;;;;;;2.10;1.40;;;20.60;99.90;;;;;;7391091;19;20138;-81
2022/08/21 01:00:10;;;;;;;2.97;1.67;;;20.50;99.90;;;;;;7390027;19;20130;-81
2022/08/21 01:02:35;;;;;;;3.78;1.60;;;20.60;99.90;;;;;;7385697;19;20169;-80
2022/08/21 01:05:01;;;;;;;3.42;1.60;;;20.60;99.90;;;;;;7390312;19;20778;-81
2022/08/21 01:07:27;;;;;;;1.85;1.10;;;20.60;99.90;;;;;;7386285;19;20469;-81
2022/08/21 01:09:53;;;;;;;3.10;1.75;;;20.50;99.90;;;;;;7389982;19;20145;-81
2022/08/21 01:12:19;;;;;;;1.98;1.63;;;20.60;99.90;;;;;;7385422;19;20139;-80
2022/08/21 01:14:45;;;;;;;3.08;1.27;;;20.60;99.90;;;;;;7389159;19;20142;-79
2022/08/21 01:17:13;;;;;;;3.42;1.58;;;20.50;99.90;;;;;;7388941;19;20478;-79
2022/08/21 01:19:39;;;;;;;2.92;1.50;;;20.60;99.90;;;;;;7388720;19;20498;-80
2022/08/21 01:22:09;;;;;;;1.85;1.25;;;20.60;99.90;;;;;;7387280;19;20147;-78
2022/08/21 01:24:35;;;;;;;2.72;1.10;;;20.70;99.90;;;;;;7384007;19;20485;-80
2022/08/21 01:27:02;;;;;;;1.90;1.17;;;20.70;99.90;;;;;;7389950;19;20151;-80
2022/08/21 01:29:50;;;;;;;3.78;1.48;;;20.70;99.90;;;;;;7393146;19;20143;-80
2022/08/21 01:32:19;;;;;;;3.67;1.40;;;20.70;99.90;;;;;;7387503;19;20180;-79
2022/08/21 01:34:47;;;;;;;2.72;1.58;;;20.60;99.90;;;;;;7392231;19;20134;-79
2022/08/21 01:37:13;;;;;;;2.70;1.40;;;20.40;99.90;;;;;;7384555;19;20170;-80
2022/08/21 01:39:41;;;;;;;2.67;1.25;;;20.10;99.90;;;;;;7389017;19;20564;-81
2022/08/21 01:42:08;;;;;;;2.00;1.58;;;19.80;99.90;;;;;;7389014;19;20166;-80
2022/08/21 01:44:34;;;;;;;3.78;1.25;;;20.00;99.90;;;;;;7389419;19;20153;-80
2022/08/21 01:47:04;;;;;;;1.77;1.10;;;20.20;99.90;;;;;;7388550;19;20217;-81
2022/08/21 01:49:29;;;;;;;3.13;1.45;;;20.10;99.90;;;;;;7391525;19;20130;-81
2022/08/21 01:51:55;;;;;;;1.60;1.23;;;20.10;99.90;;;;;;7388430;19;20164;-81
2022/08/21 01:54:22;;;;;;;3.85;1.42;;;20.10;99.90;;;;;;7391631;19;20186;-79
2022/08/21 01:56:50;;;;;;;2.92;1.50;;;20.10;99.90;;;;;;7396447;19;20134;-81
2022/08/21 01:59:16;;;;;;;3.45;1.45;;;20.10;99.90;;;;;;7395808;19;20250;-81
2022/08/21 02:01:42;;;;;;;2.20;1.17;;;20.20;99.90;;;;;;7398372;19;20258;-73
2022/08/21 02:04:09;;;;;;;2.75;1.30;;;20.10;99.90;;;;;;7395918;19;20508;-73
2022/08/21 02:06:36;;;;;;;3.20;1.15;;;20.10;99.90;;;;;;7399669;19;20158;-74
2022/08/21 02:09:05;;;;;;;2.58;1.25;;;20.00;99.90;;;;;;7395332;19;20146;-73
2022/08/21 02:11:32;;;;;;;2.58;1.33;;;20.10;99.90;;;;;;7396884;19;20150;-74
2022/08/21 02:13:58;;;;;;;7.57;2.22;;;20.10;99.90;;;;;;7395253;19;20138;-74
2022/08/21 02:16:24;;;;;;;1.48;1.20;;;20.00;99.90;;;;;;7396439;19;20270;-74
2022/08/21 02:18:49;;;;;;;2.33;1.60;;;20.00;99.90;;;;;;7397627;19;20142;-73
2022/08/21 02:21:15;;;;;;;1.42;1.20;;;19.90;99.90;;;;;;7395115;19;20168;-74
2022/08/21 02:23:41;;;;;;;3.60;1.40;;;19.90;99.90;;;;;;7395633;19;20139;-74
2022/08/21 02:26:08;;;;;;;3.53;1.40;;;19.80;99.90;;;;;;7395771;19;20146;-74
2022/08/21 02:28:35;;;;;;;2.67;1.67;;;19.80;99.90;;;;;;7393609;19;20163;-74
2022/08/21 02:31:01;;;;;;;1.88;1.30;;;19.70;99.90;;;;;;7394325;19;20166;-73
2022/08/21 02:33:27;;;;;;;3.78;1.35;;;19.70;99.90;;;;;;7392790;19;20158;-73
2022/08/21 02:35:54;;;;;;;2.40;1.30;;;19.80;99.90;;;;;;7395458;19;20315;-74
2022/08/21 02:38:24;;;;;;;2.47;1.25;;;20.00;99.90;;;;;;7393476;19;20161;-73
2022/08/21 02:40:51;;;;;;;1.67;1.35;;;19.60;99.90;;;;;;7393429;19;20154;-74
2022/08/21 02:43:19;;;;;;;4.32;1.50;;;19.60;99.90;;;;;;7393627;19;20178;-73
2022/08/21 02:45:45;;;;;;;2.00;1.20;;;19.70;99.90;;;;;;7395405;19;20159;-74
2022/08/21 02:48:14;;;;;;;4.57;1.58;;;19.60;99.90;;;;;;7395800;19;20142;-73
2022/08/21 02:50:48;;;;;;;2.92;1.50;;;19.60;99.90;;;;;;7395409;19;20210;-73
2022/08/21 02:53:16;;;;;;;2.53;1.30;;;19.10;99.90;;;;;;7394191;19;20205;-73
2022/08/21 02:55:44;;;;;;;3.17;1.60;;;19.40;99.90;;;;;;7395215;19;20152;-74
2022/08/21 02:58:12;;;;;;;2.92;1.50;;;19.60;99.90;;;;;;7394589;19;20243;-74
2022/08/21 03:00:38;;;;;;;3.78;1.80;;;19.50;99.90;;;;;;7394393;19;20513;-74
2022/08/21 03:03:04;;;;;;;2.75;2.00;;;19.60;99.90;;;;;;7392769;19;20147;-73
2022/08/21 03:05:33;;;;;;;4.07;1.90;;;19.70;99.90;;;;;;7393031;19;20479;-72
2022/08/21 03:08:01;;;;;;;2.67;1.65;;;19.70;99.90;;;;;;7392310;19;20595;-74
2022/08/21 03:10:28;;;;;;;2.03;1.60;;;19.20;99.90;;;;;;7393008;19;20141;-73
2022/08/21 03:12:54;;;;;;;2.05;1.50;;;18.90;99.90;;;;;;7392128;19;20175;-74
2022/08/21 03:15:23;;;;;;;2.65;1.63;;;19.30;99.90;;;;;;7393652;19;20139;-74
2022/08/21 03:17:50;;;;;;;2.10;1.45;;;19.40;99.90;;;;;;7394694;19;20165;-73
2022/08/21 03:20:18;;;;;;;4.90;1.98;;;19.40;99.90;;;;;;7393435;19;20147;-73
2022/08/21 03:22:44;;;;;;;5.85;2.90;;;19.60;99.90;;;;;;7394032;19;20154;-74
2022/08/21 03:25:10;;;;;;;6.07;2.70;;;19.70;99.90;;;;;;7392577;19;20206;-74
2022/08/21 03:27:36;;;;;;;4.60;1.80;;;19.70;99.90;;;;;;7393205;19;20135;-74
2022/08/21 03:30:05;;;;;;;2.33;1.88;;;19.80;99.90;;;;;;7392445;19;20135;-75
2022/08/21 03:32:31;;;;;;;2.88;1.52;;;19.80;99.90;;;;;;7390490;19;20187;-73
2022/08/21 03:34:57;;;;;;;2.92;1.58;;;19.90;99.90;;;;;;7395601;19;20642;-74
2022/08/21 03:37:24;;;;;;;1.95;1.50;;;19.90;99.90;;;;;;7394606;19;20142;-74
2022/08/21 03:39:50;;;;;;;2.17;1.50;;;19.30;99.90;;;;;;7391443;19;20168;-74
2022/08/21 03:42:17;;;;;;;1.90;1.50;;;19.10;99.90;;;;;;7392521;19;20172;-72
2022/08/21 03:44:42;;;;;;;4.28;1.98;;;18.90;99.90;;;;;;7393146;19;20153;-72
2022/08/21 03:47:09;;;;;;;3.63;1.73;;;19.00;99.90;;;;;;7392512;19;20640;-73
2022/08/21 03:49:35;;;;;;;3.10;1.30;;;19.10;99.90;;;;;;7391640;19;20157;-74
2022/08/21 03:52:02;;;;;;;2.72;1.90;;;19.10;99.90;;;;;;7393840;19;20655;-74
2022/08/21 03:54:28;;;;;;;3.70;1.67;;;19.20;99.90;;;;;;7390837;19;20155;-73
2022/08/21 03:56:54;;;;;;;3.03;1.92;;;19.40;99.90;;;;;;7394244;19;20135;-75
2022/08/21 03:59:20;;;;;;;5.85;1.77;;;19.50;99.90;;;;;;7391739;19;20636;-74
2022/08/21 04:02:00;;;;;;;3.28;1.83;;;19.50;99.90;;;;;;7391525;19;20146;-74
2022/08/21 04:04:28;;;;;;;4.63;1.98;;;19.60;99.90;;;;;;7394117;19;20503;-72
2022/08/21 04:06:55;;;;;;;5.57;2.30;;;19.50;99.90;;;;;;7391144;19;20147;-73
2022/08/21 04:09:21;;;;;;;8.10;1.70;;;19.50;99.90;;;;;;7392587;19;20153;-73
2022/08/21 04:11:47;;;;;;;3.42;2.22;;;19.60;99.90;;;;;;7389385;19;20130;-74
2022/08/21 04:14:14;;;;;;;1.90;1.48;;;19.50;99.90;;;;;;7392656;19;20591;-73
2022/08/21 04:16:41;;;;;;;2.45;1.70;;;19.50;99.90;;;;;;7391023;19;20146;-73
2022/08/21 04:19:07;;;;;;;2.10;1.38;;;19.50;99.90;;;;;;7391949;19;20218;-74
2022/08/21 04:21:36;;;;;;;4.43;1.80;;;19.40;99.90;;;;;;7391862;19;20148;-74
2022/08/21 04:24:01;;;;;;;4.60;1.50;;;19.30;99.90;;;;;;7393017;19;20145;-74
2022/08/21 04:26:27;;;;;;;2.65;1.50;;;19.30;99.90;;;;;;7390083;19;20142;-72
2022/08/21 04:28:57;;;;;;;2.00;1.50;;;19.30;99.90;;;;;;7393625;19;20151;-73
2022/08/21 04:31:27;;;;;;;3.22;1.70;;;19.30;99.90;;;;;;7391746;19;20158;-73
2022/08/21 04:33:53;;;;;;;4.50;1.70;;;19.30;99.90;;;;;;7391939;19;20159;-73
2022/08/21 04:36:19;;;;;;;2.08;1.38;;;19.30;99.90;;;;;;7392675;19;20150;-73
2022/08/21 04:38:45;;;;;;;3.10;1.70;;;19.20;99.90;;;;;;7392959;19;20146;-73
2022/08/21 04:41:11;;;;;;;3.33;1.50;;;19.30;99.90;;;;;;7392925;19;20123;-74
2022/08/21 04:43:38;;;;;;;3.42;1.70;;;19.30;99.90;;;;;;7389511;19;20138;-73
2022/08/21 04:46:05;;;;;;;2.80;1.80;;;19.20;99.90;;;;;;7391928;19;20138;-74
2022/08/21 04:48:32;;;;;;;4.20;1.65;;;19.10;99.90;;;;;;7390177;19;20715;-72
2022/08/21 04:51:09;;;;;;;4.47;1.83;;;19.10;99.90;;;;;;7390767;19;20599;-74
2022/08/21 04:53:43;;;;;;;2.90;1.65;;;19.10;99.90;;;;;;7387857;19;20151;-73
2022/08/21 04:56:47;;;;;;;4.90;1.92;;;18.80;99.90;;;;;;7392334;19;20134;-73
2022/08/21 04:59:17;;;;;;;2.50;1.80;;;18.70;99.90;;;;;;7390423;19;20145;-74
2022/08/21 05:01:44;;;;;;;3.33;1.80;;;18.80;99.90;;;;;;7387809;19;20141;-74
2022/08/21 05:04:13;;;;;;;3.17;2.00;;;18.90;99.90;;;;;;7389744;19;20176;-74
2022/08/21 05:06:43;;;;;;;2.97;1.98;;;18.90;99.90;;;;;;7391861;19;20139;-74
2022/08/21 05:09:11;;;;;;;2.97;1.50;;;19.10;99.90;;;;;;7390940;19;20142;-74
2022/08/21 05:11:37;;;;;;;2.67;1.83;;;19.10;99.90;;;;;;7387635;19;20138;-74
2022/08/21 05:14:03;;;;;;;2.35;1.77;;;19.10;99.90;;;;;;7391608;19;20131;-73
2022/08/21 05:16:29;;;;;;;3.45;1.63;;;18.80;99.90;;;;;;7388288;19;20130;-74
2022/08/21 05:18:55;;;;;;;3.00;1.50;;;18.80;99.90;;;;;;7390264;19;20664;-75
2022/08/21 05:21:20;;;;;;;2.92;1.48;;;19.00;99.90;;;;;;7389489;19;20142;-75
2022/08/21 05:23:46;;;;;;;3.35;1.70;;;19.20;99.90;;;;;;7387666;19;20134;-73
2022/08/21 05:26:12;;;;;;;2.47;1.70;;;19.20;99.90;;;;;;7388855;19;20132;-73
2022/08/21 05:28:38;;;;;;;3.70;2.00;;;19.00;99.90;;;;;;7388430;19;20158;-75
2022/08/21 05:31:04;;;;;;;3.50;1.80;;;18.90;99.90;;;;;;7389246;19;20201;-75
2022/08/21 05:33:30;;;;;;;3.15;1.60;;;19.00;99.90;;;;;;7387172;19;20139;-74
2022/08/21 05:35:56;;;;;;;3.33;1.88;;;19.10;99.90;;;;;;7390253;19;20233;-74
2022/08/21 05:38:27;;;;;;;3.47;1.85;;;19.10;99.90;;;;;;7388406;19;20221;-73
2022/08/21 05:40:53;;;;;;;4.82;1.77;;;19.20;99.90;;;;;;7387277;19;20618;-73
2022/08/21 05:43:19;;;;;;;2.80;1.70;;;19.20;99.90;;;;;;7386926;19;20218;-73
2022/08/21 05:45:45;;;;;;;3.95;1.77;;;19.20;99.90;;;;;;7389694;19;20154;-74
2022/08/21 05:48:13;;;;;;;2.63;1.63;;;19.20;99.90;;;;;;7389245;19;20402;-74
2022/08/21 05:50:41;;;;;;;3.35;2.03;;;19.30;99.90;;;;;;7391691;19;20138;-74
2022/08/21 05:53:07;;;;;;;3.72;1.60;;;19.30;99.90;;;;;;7388118;19;20193;-73
2022/08/21 05:55:35;;;;;;;3.22;1.90;;;19.20;99.90;;;;;;7389961;19;20155;-74
2022/08/21 05:58:00;;;;;;;3.70;1.70;;;19.20;99.90;;;;;;7387340;19;20155;-74
2022/08/21 06:00:26;;;;;;;2.65;1.60;;;19.20;99.90;;;;;;7390765;19;20135;-74
2022/08/21 06:02:52;;;;;;;4.50;1.98;;;19.30;99.90;;;;;;7386210;19;20700;-75
2022/08/21 06:05:18;;;;;;;2.92;1.77;;;19.20;99.90;;;;;;7390159;19;20576;-74
2022/08/21 06:07:44;;;;;;;3.65;1.98;;;19.30;99.90;;;;;;7387908;19;20139;-74
2022/08/21 06:10:10;;;;;;;3.38;1.85;;;19.40;99.90;;;;;;7389442;19;20143;-74
2022/08/21 06:12:36;;;;;;;7.53;1.98;;;19.60;99.90;;;;;;7386696;19;20494;-74
2022/08/21 06:15:03;;;;;;;2.70;1.90;;;19.70;99.90;;;;;;7387034;19;20138;-74
2022/08/21 06:17:29;;;;;;;2.88;1.88;;;19.60;99.90;;;;;;7387130;19;20487;-73
2022/08/21 06:19:55;;;;;;;4.05;2.20;;;19.70;99.90;;;;;;7388807;19;20593;-75
2022/08/21 06:22:21;;;;;;;3.85;1.90;;;19.70;99.90;;;;;;7388683;19;20135;-73
2022/08/21 06:24:47;;;;;;;2.92;1.80;;;19.50;99.90;;;;;;7387835;19;20134;-74
2022/08/21 06:27:13;;;;;;;3.50;2.03;;;19.30;99.90;;;;;;7385635;19;20610;-73
2022/08/21 06:29:39;;;;;;;4.10;1.90;;;19.50;99.90;;;;;;7387516;19;20130;-73
2022/08/21 06:32:07;;;;;;;2.97;1.58;;;19.60;99.90;;;;;;7385556;19;20174;-74
2022/08/21 06:34:37;;;;;;;2.25;1.42;;;19.80;99.90;;;;;;7387373;19;20154;-73
2022/08/21 06:37:03;;;;;;;4.90;1.98;;;19.90;99.90;;;;;;7385722;19;20171;-74
2022/08/21 06:39:29;;;;;;;3.80;2.15;;;19.90;99.90;;;;;;7387157;19;20146;-73
2022/08/21 06:41:55;;;;;;;3.63;2.13;;;19.90;99.90;;;;;;7394890;19;20251;-74
2022/08/21 06:44:21;;;;;;;3.00;1.55;;;20.10;99.90;;;;;;7394099;19;20138;-75
2022/08/21 06:46:48;;;;;;;2.92;1.65;;;20.20;99.90;;;;;;7396154;19;20568;-79
2022/08/21 06:49:13;;;;;;;3.00;1.52;;;19.80;99.90;;;;;;7393643;19;20145;-74
2022/08/21 06:51:40;;;;;;;3.95;1.63;;;20.00;99.90;;;;;;7394530;19;20158;-74
2022/08/21 06:54:06;;;;;;;3.88;1.92;;;20.20;99.90;;;;;;7392872;19;20131;-73
2022/08/21 06:56:33;;;;;;;3.92;1.92;;;20.30;99.90;;;;;;7392430;19;20146;-73
2022/08/21 06:58:59;;;;;;;3.40;1.83;;;20.30;99.90;;;;;;7392640;19;20167;-73
2022/08/21 07:01:26;;;;;;;3.78;2.00;;;20.50;99.90;;;;;;7387741;19;20175;-73
2022/08/21 07:03:52;;;;;;;4.43;2.20;;;20.70;99.90;;;;;;7392032;19;20143;-74
2022/08/21 07:06:18;;;;;;;3.38;2.00;;;21.30;99.90;;;;;;7392238;19;20154;-73
2022/08/21 07:08:44;;;;;;;3.25;2.30;;;22.00;99.90;;;;;;7392266;19;20213;-73
2022/08/21 07:11:19;;;;;;;3.05;1.80;;;22.70;99.90;;;;;;7391968;19;20142;-74
2022/08/21 07:13:45;;;;;;;2.47;1.60;;;23.30;99.90;;;;;;7389696;19;20142;-73
2022/08/21 07:16:12;;;;;;;3.28;1.75;;;23.60;99.90;;;;;;7391645;19;20142;-74
2022/08/21 07:18:38;;;;;;;2.67;1.50;;;23.70;99.90;;;;;;7396368;19;20150;-74
2022/08/21 07:21:07;;;;;;;2.47;1.80;;;23.90;99.90;;;;;;7390437;19;20206;-74
2022/08/21 07:23:37;;;;;;;3.58;1.67;;;24.00;99.90;;;;;;7394580;19;20130;-74
2022/08/21 07:26:03;;;;;;;2.45;1.50;;;24.20;99.90;;;;;;7394332;19;20141;-73
2022/08/21 07:28:30;;;;;;;4.47;1.90;;;24.40;99.90;;;;;;7394741;19;20522;-74
2022/08/21 07:30:58;;;;;;;3.72;1.85;;;24.50;99.90;;;;;;7394230;19;20607;-80
2022/08/21 07:33:27;;;;;;;2.78;1.88;;;24.60;99.90;;;;;;7392169;19;20138;-80
2022/08/21 07:35:53;;;;;;;2.78;1.83;;;24.50;99.90;;;;;;7395082;19;20127;-82
2022/08/21 07:38:19;;;;;;;5.93;1.90;;;24.60;99.90;;;;;;7394810;19;20149;-79
2022/08/21 07:40:47;;;;;;;3.90;2.03;;;24.70;99.90;;;;;;7394431;19;20262;-80
2022/08/21 07:43:13;;;;;;;2.70;1.80;;;25.00;99.90;;;;;;7393734;19;20207;-81
2022/08/21 07:45:38;;;;;;;3.28;1.80;;;25.30;99.90;;;;;;7393055;19;20146;-80
2022/08/21 07:48:04;;;;;;;4.20;1.80;;;25.40;99.90;;;;;;7391756;19;20150;-79
2022/08/21 07:50:30;;;;;;;2.28;1.40;;;25.50;99.90;;;;;;7392737;19;20210;-79
2022/08/21 07:52:56;;;;;;;3.05;1.88;;;25.50;99.90;;;;;;7390474;19;20153;-78
2022/08/21 07:55:22;;;;;;;2.78;1.75;;;25.40;99.90;;;;;;7394631;19;20188;-79
2022/08/21 07:57:48;;;;;;;3.33;1.80;;;25.30;99.90;;;;;;7394117;19;20138;-79
2022/08/21 08:00:17;;;;;;;5.13;2.15;;;25.50;99.90;;;;;;7391831;19;20162;-82
2022/08/21 08:02:46;;;;;;;2.63;1.92;;;25.90;99.90;;;;;;7392889;19;20540;-81
2022/08/21 08:05:12;;;;;;;4.18;2.00;;;26.10;99.90;;;;;;7393473;19;20155;-79
2022/08/21 08:07:38;;;;;;;3.33;1.98;;;26.10;99.90;;;;;;7391019;19;20159;-77
2022/08/21 08:10:06;;;;;;;3.15;1.92;;;26.20;99.90;;;;;;7392197;19;20178;-79
2022/08/21 08:12:38;;;;;;;3.88;2.00;;;26.20;99.80;;;;;;7389427;19;20142;-77
2022/08/21 08:15:05;;;;;;;4.50;2.20;;;26.40;99.60;;;;;;7391206;19;20154;-80
2022/08/21 08:17:32;;;;;;;4.68;1.70;;;26.50;99.40;;;;;;7391873;19;20138;-76
2022/08/21 08:20:00;;;;;;;3.65;1.90;;;26.50;99.30;;;;;;7390825;19;20150;-77
2022/08/21 08:22:26;;;;;;;4.22;2.08;;;26.50;99.20;;;;;;7392203;19;20138;-78
2022/08/21 08:24:53;;;;;;;3.72;2.22;;;26.40;99.10;;;;;;7391885;19;20536;-77
2022/08/21 08:27:20;;;;;;;3.95;2.25;;;26.30;99.10;;;;;;7394840;19;20167;-78
2022/08/21 08:29:46;;;;;;;4.90;2.40;;;26.10;99.00;;;;;;7390894;19;20147;-77
2022/08/21 08:32:12;;;;;;;3.40;2.13;;;25.90;99.30;;;;;;7390667;19;20271;-78
2022/08/21 08:34:39;;;;;;;4.78;2.40;;;25.70;99.60;;;;;;7392570;19;20169;-77
2022/08/21 08:37:06;;;;;;;3.83;2.17;;;25.60;99.90;;;;;;7389704;19;20142;-77
2022/08/21 08:39:32;;;;;;;5.63;2.40;;;25.50;99.90;;;;;;7389395;19;20683;-77
2022/08/21 08:42:13;;;;;;;4.65;2.30;;;25.70;99.60;;;;;;7392033;19;20158;-78
2022/08/21 08:44:43;;;;;;;4.60;1.80;;;25.70;99.40;;;;;;7390225;19;20154;-77
2022/08/21 08:47:12;;;;;;;3.33;1.98;;;25.50;99.70;;;;;;7389424;19;20221;-76
2022/08/21 08:49:59;;;;;;;7.07;2.00;;;25.40;99.50;;;;;;7389269;19;20139;-76
2022/08/21 08:52:31;;;;;;;3.20;1.80;;;25.40;99.70;;;;;;7389119;19;20162;-78
2022/08/21 08:55:16;;;;;;;6.20;2.25;;;25.20;99.80;;;;;;7387163;19;20146;-78
2022/08/21 08:57:46;;;;;;;4.78;1.98;;;25.30;99.90;;;;;;7392282;19;20126;-78
2022/08/21 09:00:15;;;;;;;3.33;2.13;;;25.50;99.10;;;;;;7390767;19;20142;-79
2022/08/21 09:02:43;;;;;;;4.10;2.13;;;25.50;98.60;;;;;;7390142;19;20156;-79
2022/08/21 09:05:26;;;;;;;6.88;2.20;;;25.40;99.00;;;;;;7393020;19;20134;-78
2022/08/21 09:08:26;;;;;;;5.80;2.20;;;25.50;98.60;;;;;;7391953;19;20150;-78
2022/08/21 09:11:15;;;;;;;2.97;1.85;;;25.50;98.20;;;;;;7391224;19;20127;-79
2022/08/21 09:14:08;;;;;;;2.78;2.40;;;25.10;97.40;;;;;;7391101;19;20375;-81
2022/08/21 09:16:54;;;;;;;4.63;2.30;;;25.00;97.90;;;;;;7393386;19;20584;-81
2022/08/21 09:19:46;;;;;;;3.80;2.10;;;24.90;97.90;;;;;;7391821;19;20146;-79
2022/08/21 09:22:17;;;;;;;5.07;2.20;;;24.80;98.00;;;;;;7392580;19;20139;-78
2022/08/21 09:24:49;;;;;;;4.38;2.45;;;24.80;98.20;;;;;;7390688;19;20146;-76
2022/08/21 09:27:17;;;;;;;4.85;2.42;;;24.90;97.70;;;;;;7390160;19;20213;-76
2022/08/21 09:29:51;;;;;;;4.80;2.65;;;24.80;98.10;;;;;;7391677;19;20506;-76
2022/08/21 09:32:19;;;;;;;6.18;2.50;;;24.80;98.40;;;;;;7388063;19;20546;-75
2022/08/21 09:35:19;;;;;;;4.90;2.20;;;24.90;98.00;;;;;;7391065;19;20154;-75
2022/08/21 09:37:53;;;;;;;5.40;2.42;;;24.90;97.40;;;;;;7385789;19;20167;-76
2022/08/21 09:40:41;;;;;;;4.45;2.05;;;24.90;96.80;;;;;;7386652;19;20186;-78
2022/08/21 09:43:26;;;;;;;5.53;2.67;;;25.00;95.80;;;;;;7388145;19;20138;-74
2022/08/21 09:46:09;;;;;;;3.50;2.10;;;25.10;95.70;;;;;;7389613;19;20380;-77
2022/08/21 09:48:56;;;;;;;5.85;2.58;;;25.20;96.20;;;;;;7387787;19;20412;-77
2022/08/21 09:51:34;;;;;;;4.45;2.30;;;25.20;95.80;;;;;;7389280;19;20595;-81
2022/08/21 09:54:06;;;;;;;6.53;2.42;;;25.10;96.40;;;;;;7387044;19;20139;-81
2022/08/21 09:59:33;;;;;;;4.60;1.90;;;25.00;96.40;;;;;;7390822;19;20162;-81
2022/08/21 10:02:02;;;;;;;4.53;2.42;;;25.10;96.20;;;;;;7392509;19;20492;-81
2022/08/21 10:04:33;;;;;;;6.60;2.53;;;25.10;95.90;;;;;;7384584;19;20165;-75
2022/08/21 10:07:10;;;;;;;6.07;2.42;;;25.20;96.20;;;;;;7389210;19;20487;-75
2022/08/21 10:09:37;;;;;;;4.78;2.00;;;25.20;95.80;;;;;;7389474;19;20130;-77
2022/08/21 10:12:24;;;;;;;8.40;2.88;;;25.20;95.80;;;;;;7389189;19;20191;-78
2022/08/21 10:15:41;;;;;;;5.95;2.10;;;25.20;96.00;;;;;;7389125;19;20139;-77
2022/08/21 10:18:11;;;;;;;4.75;1.90;;;25.30;96.10;;;;;;7393323;19;20235;-75
2022/08/21 10:20:40;;;;;;;5.65;2.45;;;25.40;95.60;;;;;;7395903;19;20150;-75
2022/08/21 10:23:32;;;;;;;5.03;2.30;;;25.40;95.60;;;;;;7395066;19;20172;-76
2022/08/21 10:26:09;;;;;;;4.65;2.40;;;25.30;95.20;;;;;;7393487;19;20147;-76
2022/08/21 10:28:48;;;;;;;5.43;2.30;;;25.20;95.40;;;;;;7396785;19;20665;-75
2022/08/21 10:31:32;;;;;;;5.88;2.45;;;25.20;95.30;;;;;;7395433;19;20122;-78
2022/08/21 10:34:29;;;;;;;4.45;2.45;;;25.20;95.80;;;;;;7392494;19;20214;-77
2022/08/21 10:37:03;;;;;;;5.47;2.30;;;25.50;95.50;;;;;;7397947;19;20131;-77
2022/08/21 10:40:13;;;;;;;5.57;2.15;;;25.70;95.00;;;;;;7394355;19;20146;-78
2022/08/21 10:43:04;;;;;;;5.45;2.50;;;25.70;94.80;;;;;;7391638;19;20198;-77
2022/08/21 10:45:48;;;;;;;5.47;2.80;;;25.80;94.30;;;;;;7392832;19;20151;-77
2022/08/21 10:48:36;;;;;;;5.38;2.15;;;25.70;94.30;;;;;;7396837;19;20182;-77
2022/08/21 10:51:18;;;;;;;4.93;2.63;;;25.70;94.40;;;;;;7394015;19;20214;-77
2022/08/21 10:53:52;;;;;;;2.83;1.90;;;25.70;94.50;;;;;;7394330;19;20134;-76
2022/08/21 10:56:33;;;;;;;4.28;2.30;;;25.80;94.30;;;;;;7394947;19;20125;-76
2022/08/21 10:59:22;;;;;;;4.88;2.53;;;25.90;94.40;;;;;;7393728;19;20500;-77
2022/08/21 11:01:52;;;;;;;4.82;2.03;;;26.00;93.80;;;;;;7392409;19;20133;-77
2022/08/21 11:04:34;;;;;;;2.97;2.13;;;26.30;93.50;;;;;;7393149;19;20155;-77
2022/08/21 11:07:17;;;;;;;3.97;2.60;;;26.50;93.30;;;;;;7394267;19;20250;-74
2022/08/21 11:09:48;;;;;;;11.77;2.38;;;26.50;92.90;;;;;;7388277;19;20149;-76
2022/08/21 11:12:43;;;;;;;4.10;2.25;;;26.60;93.10;;;;;;7382458;19;20549;-75
2022/08/21 11:15:28;;;;;;;4.70;2.13;;;26.50;92.80;;;;;;7392754;19;20628;-75
2022/08/21 11:18:22;;;;;;;3.70;2.20;;;26.40;93.50;;;;;;7391014;19;20494;-73
2022/08/21 11:21:26;;;;;;;4.47;2.45;;;26.30;93.20;;;;;;7389499;19;20135;-76
2022/08/21 11:24:10;;;;;;;4.05;1.92;;;26.40;92.90;;;;;;7387250;19;20205;-74
2022/08/21 11:26:47;;;;;;;4.63;2.33;;;26.30;93.20;;;;;;7387577;19;20597;-75
2022/08/21 11:29:24;;;;;;;3.90;2.47;;;26.30;93.10;;;;;;7388856;19;20584;-75
2022/08/21 11:31:59;;;;;;;4.72;2.75;;;26.40;92.70;;;;;;7385497;19;20185;-76
2022/08/21 11:34:49;;;;;;;4.35;2.20;;;26.40;92.40;;;;;;7391963;19;20221;-77
2022/08/21 11:37:42;;;;;;;5.57;2.58;;;26.40;92.30;;;;;;7391947;19;20170;-77
2022/08/21 11:40:47;;;;;;;4.88;2.85;;;26.40;92.10;;;;;;7392969;19;20154;-76
2022/08/21 11:43:22;;;;;;;4.60;2.40;;;26.40;92.00;;;;;;7391984;19;20160;-76
2022/08/21 11:46:11;;;;;;;6.38;2.50;;;26.50;92.10;;;;;;7392023;19;20254;-77
2022/08/21 11:49:17;;;;;;;4.13;2.90;;;26.50;92.00;;;;;;7393598;19;20139;-75
2022/08/21 11:51:47;;;;;;;5.78;2.15;;;26.60;92.10;;;;;;7391596;19;20138;-80
2022/08/21 11:54:35;;;;;;;3.53;1.83;;;26.60;92.10;;;;;;7389183;19;20689;-73
2022/08/21 11:57:13;;;;;;;3.92;2.28;;;26.40;92.20;;;;;;7392671;19;20150;-77
2022/08/21 11:59:49;;;;;;;2.40;1.90;;;26.40;91.60;;;;;;7392871;19;21016;-75
2022/08/21 12:02:20;;;;;;;4.38;2.25;;;26.40;92.10;;;;;;7389753;19;20150;-74
2022/08/21 12:04:51;;;;;;;4.32;2.30;;;26.30;94.40;;;;;;7393090;19;20139;-75
2022/08/21 12:07:30;;;;;;;5.10;2.55;;;26.40;92.30;;;;;;7385563;19;20166;-74
2022/08/21 12:09:57;;;;;;;4.60;2.40;;;26.60;91.20;;;;;;7393417;19;20130;-75
2022/08/21 12:12:23;;;;;;;3.92;2.40;;;26.60;91.30;;;;;;7391562;19;20134;-74
2022/08/21 12:14:51;;;;;;;4.03;2.03;;;26.70;90.80;;;;;;7392747;19;20505;-74
2022/08/21 12:17:34;;;;;;;5.03;2.75;;;26.80;90.40;;;;;;7390852;19;20152;-74
2022/08/21 12:20:18;;;;;;;4.35;2.05;;;26.80;91.20;;;;;;7391169;19;20154;-75
2022/08/21 12:23:04;;;;;;;5.43;2.72;;;26.90;91.30;;;;;;7389104;19;20139;-75
2022/08/21 12:25:42;;;;;;;3.78;2.20;;;26.90;90.70;;;;;;7386001;19;20150;-75
2022/08/21 12:28:23;;;;;;;5.65;2.47;;;26.80;92.50;;;;;;7393632;19;20134;-77
2022/08/21 12:30:49;;;;;;;4.60;2.40;;;26.90;90.60;;;;;;7391379;19;20146;-76
2022/08/21 12:33:37;;;;;;;3.60;2.38;;;26.60;92.00;;;;;;7390152;19;20482;-75
2022/08/21 12:36:10;;;;;;;2.33;1.80;;;26.70;91.70;;;;;;7389164;19;20142;-74
2022/08/21 12:38:50;;;;;;;2.75;1.88;;;26.60;92.60;;;;;;7389427;19;20131;-75
2022/08/21 12:41:22;;;;;;;5.30;2.33;;;26.70;90.90;;;;;;7390420;19;20155;-75
2022/08/21 12:43:57;;;;;;;3.75;2.15;;;26.80;90.10;;;;;;7390586;19;20131;-76
2022/08/21 12:46:39;;;;;;;5.60;2.17;;;27.00;89.60;;;;;;7389262;19;20130;-75
2022/08/21 12:49:45;;;;;;;3.38;1.95;;;27.20;90.20;;;;;;7387754;19;20139;-76
2022/08/21 12:52:20;;;;;;;4.80;2.35;;;27.20;90.20;;;;;;7382103;19;20222;-77
2022/08/21 12:54:46;;;;;;;3.08;1.88;;;27.00;90.00;;;;;;7392696;19;20478;-76
2022/08/21 12:57:30;;;;;;;6.40;3.60;;;27.20;89.70;;;;;;7388353;19;20122;-76
2022/08/21 13:00:08;;;;;;;6.47;3.65;;;27.30;88.50;;;;;;7388147;19;20131;-76
2022/08/21 13:02:43;;;;;;;3.80;2.30;;;27.30;90.40;;;;;;7388591;19;20130;-76
2022/08/21 13:05:14;;;;;;;4.50;2.30;;;27.50;90.00;;;;;;7388671;19;20467;-77
2022/08/21 13:07:46;;;;;;;4.25;1.80;;;27.50;87.60;;;;;;7392708;19;20640;-77
2022/08/21 13:10:21;;;;;;;2.97;1.90;;;27.60;87.00;;;;;;7388553;19;20139;-77
2022/08/21 13:12:48;;;;;;;3.05;2.05;;;27.60;86.90;;;;;;7388821;19;20514;-75